sensor_id;sensor_type;location;lat;lon;timestamp;temperature;humidity
5578;DHT22;2811;51.900;10.734;2023-12-20T00:00:14;7.60;99.90
5578;DHT22;2811;51.900;10.734;2023-12-20T00:02:41;7.60;99.90
5578;DHT22;2811;51.900;10.734;2023-12-20T00:05:12;7.60;99.90
5578;DHT22;2811;51.900;10.734;2023-12-20T00:07:39;7.70;99.90
5578;DHT22;2811;51.900;10.734;2023-12-20T00:10:08;7.70;99.90
5578;DHT22;2811;51.900;10.734;2023-12-20T00:12:34;7.70;99.90
5578;DHT22;2811;51.900;10.734;2023-12-20T00:15:01;7.70;99.90
5578;DHT22;2811;51.900;10.734;2023-12-20T00:17:30;7.80;99.90
5578;DHT22;2811;51.900;10.734;2023-12-20T00:19:57;7.80;99.90
5578;DHT22;2811;51.900;10.734;2023-12-20T00:22:24;7.80;99.90
5578;DHT22;2811;51.900;10.734;2023-12-20T00:24:50;7.80;99.90
5578;DHT22;2811;51.900;10.734;2023-12-20T00:27:18;7.80;99.90
5578;DHT22;2811;51.900;10.734;2023-12-20T00:29:45;7.80;99.90
5578;DHT22;2811;51.900;10.734;2023-12-20T00:32:15;7.80;99.90
5578;DHT22;2811;51.900;10.734;2023-12-20T00:34:42;7.80;99.90
5578;DHT22;2811;51.900;10.734;2023-12-20T00:37:09;7.80;99.90
5578;DHT22;2811;51.900;10.734;2023-12-20T00:39:36;7.80;99.90
5578;DHT22;2811;51.900;10.734;2023-12-20T00:42:03;7.80;99.90
5578;DHT22;2811;51.900;10.734;2023-12-20T00:44:31;7.90;99.90
5578;DHT22;2811;51.900;10.734;2023-12-20T00:46:58;7.90;99.90
5578;DHT22;2811;51.900;10.734;2023-12-20T00:49:24;7.90;99.90
5578;DHT22;2811;51.900;10.734;2023-12-20T00:51:51;7.90;99.90
5578;DHT22;2811;51.900;10.734;2023-12-20T00:54:18;7.90;99.90
5578;DHT22;2811;51.900;10.734;2023-12-20T00:56:45;8.00;99.90
5578;DHT22;2811;51.900;10.734;2023-12-20T00:59:11;7.90;99.90
5578;DHT22;2811;51.900;10.734;2023-12-20T01:01:39;7.90;99.90
5578;DHT22;2811;51.900;10.734;2023-12-20T01:04:07;7.90;99.90
5578;DHT22;2811;51.900;10.734;2023-12-20T01:06:34;8.00;99.90
5578;DHT22;2811;51.900;10.734;2023-12-20T01:09:00;7.90;99.90
5578;DHT22;2811;51.900;10.734;2023-12-20T01:11:28;7.90;99.90
5578;DHT22;2811;51.900;10.734;2023-12-20T01:13:54;7.80;99.90
5578;DHT22;2811;51.900;10.734;2023-12-20T01:16:21;7.90;99.90
5578;DHT22;2811;51.900;10.734;2023-12-20T01:18:49;7.90;99.90
5578;DHT22;2811;51.900;10.734;2023-12-20T01:21:16;7.90;99.90
5578;DHT22;2811;51.900;10.734;2023-12-20T01:23:43;7.80;99.90
5578;DHT22;2811;51.900;10.734;2023-12-20T01:26:09;7.80;99.90
5578;DHT22;2811;51.900;10.734;2023-12-20T01:28:37;7.90;99.90
5578;DHT22;2811;51.900;10.734;2023-12-20T01:31:03;7.80;99.90
5578;DHT22;2811;51.900;10.734;2023-12-20T01:33:30;7.90;99.90
5578;DHT22;2811;51.900;10.734;2023-12-20T01:35:58;8.00;99.90
5578;DHT22;2811;51.900;10.734;2023-12-20T01:38:25;8.00;99.90
5578;DHT22;2811;51.900;10.734;2023-12-20T01:40:51;8.00;99.90
5578;DHT22;2811;51.900;10.734;2023-12-20T01:43:18;7.90;99.90
5578;DHT22;2811;51.900;10.734;2023-12-20T01:45:45;8.00;99.90
5578;DHT22;2811;51.900;10.734;2023-12-20T01:48:12;8.00;99.90
5578;DHT22;2811;51.900;10.734;2023-12-20T01:50:39;8.00;99.90
5578;DHT22;2811;51.900;10.734;2023-12-20T01:53:09;8.00;99.90
5578;DHT22;2811;51.900;10.734;2023-12-20T01:55:39;7.90;99.90
5578;DHT22;2811;51.900;10.734;2023-12-20T01:58:07;8.00;99.90
5578;DHT22;2811;51.900;10.734;2023-12-20T02:00:35;7.90;99.90
5578;DHT22;2811;51.900;10.734;2023-12-20T02:03:03;7.90;99.90
5578;DHT22;2811;51.900;10.734;2023-12-20T02:05:31;7.90;99.90
5578;DHT22;2811;51.900;10.734;2023-12-20T02:07:57;8.00;99.90
5578;DHT22;2811;51.900;10.734;2023-12-20T02:10:25;8.00;99.90
5578;DHT22;2811;51.900;10.734;2023-12-20T02:12:52;8.00;99.90
5578;DHT22;2811;51.900;10.734;2023-12-20T02:15:19;7.90;99.90
5578;DHT22;2811;51.900;10.734;2023-12-20T02:17:46;8.00;99.90
5578;DHT22;2811;51.900;10.734;2023-12-20T02:20:13;8.00;99.90
5578;DHT22;2811;51.900;10.734;2023-12-20T02:22:42;8.00;99.90
5578;DHT22;2811;51.900;10.734;2023-12-20T02:25:08;8.00;99.90
5578;DHT22;2811;51.900;10.734;2023-12-20T02:27:35;8.00;99.90
5578;DHT22;2811;51.900;10.734;2023-12-20T02:30:02;8.00;99.90
5578;DHT22;2811;51.900;10.734;2023-12-20T02:32:29;8.00;99.90
5578;DHT22;2811;51.900;10.734;2023-12-20T02:34:57;7.90;99.90
5578;DHT22;2811;51.900;10.734;2023-12-20T02:37:24;8.00;99.90
5578;DHT22;2811;51.900;10.734;2023-12-20T02:39:52;8.10;99.90
5578;DHT22;2811;51.900;10.734;2023-12-20T02:42:19;7.90;99.90
5578;DHT22;2811;51.900;10.734;2023-12-20T02:44:45;7.80;99.90
5578;DHT22;2811;51.900;10.734;2023-12-20T02:47:12;7.80;99.90
5578;DHT22;2811;51.900;10.734;2023-12-20T02:49:39;7.60;99.90
5578;DHT22;2811;51.900;10.734;2023-12-20T02:52:06;7.50;99.90
5578;DHT22;2811;51.900;10.734;2023-12-20T02:54:32;7.40;99.90
5578;DHT22;2811;51.900;10.734;2023-12-20T02:57:00;7.40;99.90
5578;DHT22;2811;51.900;10.734;2023-12-20T02:59:27;7.30;99.90
5578;DHT22;2811;51.900;10.734;2023-12-20T03:01:54;7.30;99.90
5578;DHT22;2811;51.900;10.734;2023-12-20T03:04:20;7.30;99.90
5578;DHT22;2811;51.900;10.734;2023-12-20T03:06:47;7.20;99.90
5578;DHT22;2811;51.900;10.734;2023-12-20T03:09:14;7.20;99.90
5578;DHT22;2811;51.900;10.734;2023-12-20T03:11:40;7.20;99.90
5578;DHT22;2811;51.900;10.734;2023-12-20T03:14:08;7.20;99.90
5578;DHT22;2811;51.900;10.734;2023-12-20T03:16:35;7.30;99.90
5578;DHT22;2811;51.900;10.734;2023-12-20T03:19:02;7.30;99.90
5578;DHT22;2811;51.900;10.734;2023-12-20T03:21:29;7.20;99.90
5578;DHT22;2811;51.900;10.734;2023-12-20T03:23:55;7.20;99.90
5578;DHT22;2811;51.900;10.734;2023-12-20T03:26:22;7.30;99.90
5578;DHT22;2811;51.900;10.734;2023-12-20T03:28:51;7.30;99.90
5578;DHT22;2811;51.900;10.734;2023-12-20T03:31:19;7.30;99.90
5578;DHT22;2811;51.900;10.734;2023-12-20T03:33:46;7.30;99.90
5578;DHT22;2811;51.900;10.734;2023-12-20T03:36:13;7.30;99.90
5578;DHT22;2811;51.900;10.734;2023-12-20T03:38:40;7.30;99.90
5578;DHT22;2811;51.900;10.734;2023-12-20T03:41:07;7.30;99.90
5578;DHT22;2811;51.900;10.734;2023-12-20T03:43:33;7.30;99.90
5578;DHT22;2811;51.900;10.734;2023-12-20T03:46:00;7.30;99.90
5578;DHT22;2811;51.900;10.734;2023-12-20T03:48:30;7.40;99.90
5578;DHT22;2811;51.900;10.734;2023-12-20T03:50:57;7.60;99.90
5578;DHT22;2811;51.900;10.734;2023-12-20T03:53:24;7.20;99.90
5578;DHT22;2811;51.900;10.734;2023-12-20T03:55:50;7.30;99.90
5578;DHT22;2811;51.900;10.734;2023-12-20T03:58:17;7.30;99.90
5578;DHT22;2811;51.900;10.734;2023-12-20T04:00:44;7.30;99.90
5578;DHT22;2811;51.900;10.734;2023-12-20T04:03:10;7.20;99.90
5578;DHT22;2811;51.900;10.734;2023-12-20T04:05:40;7.40;99.90
5578;DHT22;2811;51.900;10.734;2023-12-20T04:08:07;7.30;99.90
5578;DHT22;2811;51.900;10.734;2023-12-20T04:10:34;7.30;99.90
5578;DHT22;2811;51.900;10.734;2023-12-20T04:13:00;7.30;99.90
5578;DHT22;2811;51.900;10.734;2023-12-20T04:15:27;7.30;99.90
5578;DHT22;2811;51.900;10.734;2023-12-20T04:17:54;7.40;99.90
5578;DHT22;2811;51.900;10.734;2023-12-20T04:20:20;7.40;99.90
5578;DHT22;2811;51.900;10.734;2023-12-20T04:22:48;7.30;99.90
5578;DHT22;2811;51.900;10.734;2023-12-20T04:25:15;7.20;99.90
5578;DHT22;2811;51.900;10.734;2023-12-20T04:27:47;7.20;99.90
5578;DHT22;2811;51.900;10.734;2023-12-20T04:30:14;7.10;99.90
5578;DHT22;2811;51.900;10.734;2023-12-20T04:32:40;7.00;99.90
5578;DHT22;2811;51.900;10.734;2023-12-20T04:35:07;6.90;99.90
5578;DHT22;2811;51.900;10.734;2023-12-20T04:37:35;6.80;99.90
5578;DHT22;2811;51.900;10.734;2023-12-20T04:40:03;6.70;99.90
5578;DHT22;2811;51.900;10.734;2023-12-20T04:42:30;6.70;99.90
5578;DHT22;2811;51.900;10.734;2023-12-20T04:44:57;6.70;99.90
5578;DHT22;2811;51.900;10.734;2023-12-20T04:47:24;6.70;99.90
5578;DHT22;2811;51.900;10.734;2023-12-20T04:49:50;6.70;99.90
5578;DHT22;2811;51.900;10.734;2023-12-20T04:52:17;6.70;99.90
5578;DHT22;2811;51.900;10.734;2023-12-20T04:54:44;6.60;99.90
5578;DHT22;2811;51.900;10.734;2023-12-20T04:57:12;6.60;99.90
5578;DHT22;2811;51.900;10.734;2023-12-20T04:59:39;6.60;99.90
5578;DHT22;2811;51.900;10.734;2023-12-20T05:02:06;6.50;99.90
5578;DHT22;2811;51.900;10.734;2023-12-20T05:04:33;6.50;99.90
5578;DHT22;2811;51.900;10.734;2023-12-20T05:06:59;6.50;99.90
5578;DHT22;2811;51.900;10.734;2023-12-20T05:09:26;6.50;99.90
5578;DHT22;2811;51.900;10.734;2023-12-20T05:11:53;6.50;99.90
5578;DHT22;2811;51.900;10.734;2023-12-20T05:14:21;6.60;99.90
5578;DHT22;2811;51.900;10.734;2023-12-20T05:16:48;6.70;99.90
5578;DHT22;2811;51.900;10.734;2023-12-20T05:19:14;6.80;99.90
5578;DHT22;2811;51.900;10.734;2023-12-20T05:21:41;6.90;99.90
5578;DHT22;2811;51.900;10.734;2023-12-20T05:24:08;6.80;99.90
5578;DHT22;2811;51.900;10.734;2023-12-20T05:26:35;6.80;99.90
5578;DHT22;2811;51.900;10.734;2023-12-20T05:29:01;6.80;99.90
5578;DHT22;2811;51.900;10.734;2023-12-20T05:31:31;6.80;99.90
5578;DHT22;2811;51.900;10.734;2023-12-20T05:33:58;6.70;99.90
5578;DHT22;2811;51.900;10.734;2023-12-20T05:36:25;6.70;99.90
5578;DHT22;2811;51.900;10.734;2023-12-20T05:38:52;6.80;99.90
5578;DHT22;2811;51.900;10.734;2023-12-20T05:41:19;6.70;99.90
5578;DHT22;2811;51.900;10.734;2023-12-20T05:43:47;6.70;99.90
5578;DHT22;2811;51.900;10.734;2023-12-20T05:46:13;6.70;99.90
5578;DHT22;2811;51.900;10.734;2023-12-20T05:48:41;6.70;99.90
5578;DHT22;2811;51.900;10.734;2023-12-20T05:51:11;6.70;99.90
5578;DHT22;2811;51.900;10.734;2023-12-20T05:53:38;6.70;99.90
5578;DHT22;2811;51.900;10.734;2023-12-20T05:56:05;6.70;99.90
5578;DHT22;2811;51.900;10.734;2023-12-20T05:58:33;6.70;99.90
5578;DHT22;2811;51.900;10.734;2023-12-20T06:01:00;6.80;99.90
5578;DHT22;2811;51.900;10.734;2023-12-20T06:03:26;6.80;99.90
5578;DHT22;2811;51.900;10.734;2023-12-20T06:05:54;6.80;99.90
5578;DHT22;2811;51.900;10.734;2023-12-20T06:08:21;6.70;99.90
5578;DHT22;2811;51.900;10.734;2023-12-20T06:10:48;6.80;99.90
5578;DHT22;2811;51.900;10.734;2023-12-20T06:13:15;6.90;99.90
5578;DHT22;2811;51.900;10.734;2023-12-20T06:15:43;6.90;99.90
5578;DHT22;2811;51.900;10.734;2023-12-20T06:18:09;7.40;99.90
5578;DHT22;2811;51.900;10.734;2023-12-20T06:20:36;6.90;99.90
5578;DHT22;2811;51.900;10.734;2023-12-20T06:23:04;6.80;99.90
5578;DHT22;2811;51.900;10.734;2023-12-20T06:25:31;6.80;99.90
5578;DHT22;2811;51.900;10.734;2023-12-20T06:27:57;6.90;99.90
5578;DHT22;2811;51.900;10.734;2023-12-20T06:30:24;6.90;99.90
5578;DHT22;2811;51.900;10.734;2023-12-20T06:32:53;7.00;99.90
5578;DHT22;2811;51.900;10.734;2023-12-20T06:35:20;7.00;99.90
5578;DHT22;2811;51.900;10.734;2023-12-20T06:37:46;7.00;99.90
5578;DHT22;2811;51.900;10.734;2023-12-20T06:40:14;7.10;99.90
5578;DHT22;2811;51.900;10.734;2023-12-20T06:42:41;7.10;99.90
5578;DHT22;2811;51.900;10.734;2023-12-20T06:45:09;7.10;99.90
5578;DHT22;2811;51.900;10.734;2023-12-20T06:47:36;7.20;99.90
5578;DHT22;2811;51.900;10.734;2023-12-20T06:50:03;7.10;99.90
5578;DHT22;2811;51.900;10.734;2023-12-20T06:52:30;7.10;99.90
5578;DHT22;2811;51.900;10.734;2023-12-20T06:54:56;7.10;99.90
5578;DHT22;2811;51.900;10.734;2023-12-20T06:57:24;7.10;99.90
5578;DHT22;2811;51.900;10.734;2023-12-20T06:59:52;7.00;99.90
5578;DHT22;2811;51.900;10.734;2023-12-20T07:02:18;7.00;99.90
5578;DHT22;2811;51.900;10.734;2023-12-20T07:04:46;7.00;99.90
5578;DHT22;2811;51.900;10.734;2023-12-20T07:07:13;7.00;99.90
5578;DHT22;2811;51.900;10.734;2023-12-20T07:09:39;7.00;99.90
5578;DHT22;2811;51.900;10.734;2023-12-20T07:12:08;6.90;99.90
5578;DHT22;2811;51.900;10.734;2023-12-20T07:14:36;6.90;99.90
5578;DHT22;2811;51.900;10.734;2023-12-20T07:17:03;6.80;99.90
5578;DHT22;2811;51.900;10.734;2023-12-20T07:19:29;6.70;99.90
5578;DHT22;2811;51.900;10.734;2023-12-20T07:21:56;6.60;99.90
5578;DHT22;2811;51.900;10.734;2023-12-20T07:24:23;6.80;99.90
5578;DHT22;2811;51.900;10.734;2023-12-20T07:26:49;6.70;99.90
5578;DHT22;2811;51.900;10.734;2023-12-20T07:29:17;6.60;99.90
5578;DHT22;2811;51.900;10.734;2023-12-20T07:31:45;6.70;99.90
5578;DHT22;2811;51.900;10.734;2023-12-20T07:34:12;6.70;99.90
5578;DHT22;2811;51.900;10.734;2023-12-20T07:36:38;6.70;99.90
5578;DHT22;2811;51.900;10.734;2023-12-20T07:39:05;6.70;99.90
5578;DHT22;2811;51.900;10.734;2023-12-20T07:41:32;6.70;99.90
5578;DHT22;2811;51.900;10.734;2023-12-20T07:43:58;6.70;99.90
5578;DHT22;2811;51.900;10.734;2023-12-20T07:46:25;6.70;99.90
5578;DHT22;2811;51.900;10.734;2023-12-20T07:48:53;6.80;99.90
5578;DHT22;2811;51.900;10.734;2023-12-20T07:51:20;6.70;99.90
5578;DHT22;2811;51.900;10.734;2023-12-20T07:53:47;6.70;99.90
5578;DHT22;2811;51.900;10.734;2023-12-20T07:56:14;6.90;99.90
5578;DHT22;2811;51.900;10.734;2023-12-20T07:58:41;7.00;99.90
5578;DHT22;2811;51.900;10.734;2023-12-20T08:01:08;7.00;99.90
5578;DHT22;2811;51.900;10.734;2023-12-20T08:03:35;7.10;99.90
5578;DHT22;2811;51.900;10.734;2023-12-20T08:06:03;7.10;99.90
5578;DHT22;2811;51.900;10.734;2023-12-20T08:08:30;7.10;99.90
5578;DHT22;2811;51.900;10.734;2023-12-20T08:10:57;7.00;99.90
5578;DHT22;2811;51.900;10.734;2023-12-20T08:13:25;6.90;99.90
5578;DHT22;2811;51.900;10.734;2023-12-20T08:15:53;6.80;99.90
5578;DHT22;2811;51.900;10.734;2023-12-20T08:18:21;6.80;99.90
5578;DHT22;2811;51.900;10.734;2023-12-20T08:20:48;6.90;99.90
5578;DHT22;2811;51.900;10.734;2023-12-20T08:23:16;6.90;99.90
5578;DHT22;2811;51.900;10.734;2023-12-20T08:25:41;6.80;99.90
5578;DHT22;2811;51.900;10.734;2023-12-20T08:28:08;6.80;99.90
5578;DHT22;2811;51.900;10.734;2023-12-20T08:30:35;6.90;99.90
5578;DHT22;2811;51.900;10.734;2023-12-20T08:33:02;6.90;99.90
5578;DHT22;2811;51.900;10.734;2023-12-20T08:35:28;7.00;99.90
5578;DHT22;2811;51.900;10.734;2023-12-20T08:37:56;7.10;99.90
5578;DHT22;2811;51.900;10.734;2023-12-20T08:40:24;7.20;99.90
5578;DHT22;2811;51.900;10.734;2023-12-20T08:42:51;7.30;99.90
5578;DHT22;2811;51.900;10.734;2023-12-20T08:45:18;7.40;99.90
5578;DHT22;2811;51.900;10.734;2023-12-20T08:47:45;7.50;99.90
5578;DHT22;2811;51.900;10.734;2023-12-20T08:50:11;7.60;99.90
5578;DHT22;2811;51.900;10.734;2023-12-20T08:52:38;7.70;99.90
5578;DHT22;2811;51.900;10.734;2023-12-20T08:55:06;7.70;99.90
5578;DHT22;2811;51.900;10.734;2023-12-20T08:57:34;7.70;99.90
5578;DHT22;2811;51.900;10.734;2023-12-20T09:00:01;7.70;99.90
5578;DHT22;2811;51.900;10.734;2023-12-20T09:02:28;7.80;99.90
5578;DHT22;2811;51.900;10.734;2023-12-20T09:04:55;7.80;99.90
5578;DHT22;2811;51.900;10.734;2023-12-20T09:07:22;7.80;99.90
5578;DHT22;2811;51.900;10.734;2023-12-20T09:09:49;8.00;99.90
5578;DHT22;2811;51.900;10.734;2023-12-20T09:12:17;8.10;99.90
5578;DHT22;2811;51.900;10.734;2023-12-20T09:14:49;8.10;99.90
5578;DHT22;2811;51.900;10.734;2023-12-20T09:17:17;8.10;99.90
5578;DHT22;2811;51.900;10.734;2023-12-20T09:19:44;8.20;99.90
5578;DHT22;2811;51.900;10.734;2023-12-20T09:22:11;8.30;99.90
5578;DHT22;2811;51.900;10.734;2023-12-20T09:24:38;8.30;99.90
5578;DHT22;2811;51.900;10.734;2023-12-20T09:27:05;8.50;99.90
5578;DHT22;2811;51.900;10.734;2023-12-20T09:29:32;8.40;99.90
5578;DHT22;2811;51.900;10.734;2023-12-20T09:32:00;8.40;99.90
5578;DHT22;2811;51.900;10.734;2023-12-20T09:34:27;8.40;99.90
5578;DHT22;2811;51.900;10.734;2023-12-20T09:36:55;8.40;99.90
5578;DHT22;2811;51.900;10.734;2023-12-20T09:39:21;8.40;99.90
5578;DHT22;2811;51.900;10.734;2023-12-20T09:41:56;8.40;99.90
5578;DHT22;2811;51.900;10.734;2023-12-20T09:44:26;8.40;99.90
5578;DHT22;2811;51.900;10.734;2023-12-20T09:46:55;8.50;99.90
5578;DHT22;2811;51.900;10.734;2023-12-20T09:49:23;8.70;99.90
5578;DHT22;2811;51.900;10.734;2023-12-20T09:51:51;8.80;99.90
5578;DHT22;2811;51.900;10.734;2023-12-20T09:54:18;8.80;99.90
5578;DHT22;2811;51.900;10.734;2023-12-20T09:56:45;9.10;99.90
5578;DHT22;2811;51.900;10.734;2023-12-20T09:59:12;9.10;99.90
5578;DHT22;2811;51.900;10.734;2023-12-20T10:01:40;8.80;99.90
5578;DHT22;2811;51.900;10.734;2023-12-20T10:04:09;8.70;99.90
5578;DHT22;2811;51.900;10.734;2023-12-20T10:06:39;8.60;99.90
5578;DHT22;2811;51.900;10.734;2023-12-20T10:09:06;8.40;99.90
5578;DHT22;2811;51.900;10.734;2023-12-20T10:11:32;8.40;99.90
5578;DHT22;2811;51.900;10.734;2023-12-20T10:14:03;8.30;99.90
5578;DHT22;2811;51.900;10.734;2023-12-20T10:16:30;8.30;99.90
5578;DHT22;2811;51.900;10.734;2023-12-20T10:18:58;8.40;99.90
5578;DHT22;2811;51.900;10.734;2023-12-20T10:21:26;8.30;99.90
5578;DHT22;2811;51.900;10.734;2023-12-20T10:23:55;8.30;99.90
5578;DHT22;2811;51.900;10.734;2023-12-20T10:26:22;8.20;99.90
5578;DHT22;2811;51.900;10.734;2023-12-20T10:28:50;8.30;99.90
5578;DHT22;2811;51.900;10.734;2023-12-20T10:31:28;8.40;99.90
5578;DHT22;2811;51.900;10.734;2023-12-20T10:33:57;8.60;99.90
5578;DHT22;2811;51.900;10.734;2023-12-20T10:36:25;8.50;99.90
5578;DHT22;2811;51.900;10.734;2023-12-20T10:38:53;8.50;99.90
5578;DHT22;2811;51.900;10.734;2023-12-20T10:41:25;8.30;99.90
5578;DHT22;2811;51.900;10.734;2023-12-20T10:43:54;8.20;99.90
5578;DHT22;2811;51.900;10.734;2023-12-20T10:46:21;8.20;99.90
5578;DHT22;2811;51.900;10.734;2023-12-20T10:48:48;8.20;99.90
5578;DHT22;2811;51.900;10.734;2023-12-20T10:51:18;8.30;99.90
5578;DHT22;2811;51.900;10.734;2023-12-20T10:53:47;8.40;99.90
5578;DHT22;2811;51.900;10.734;2023-12-20T10:56:16;8.40;99.90
5578;DHT22;2811;51.900;10.734;2023-12-20T10:58:45;8.30;99.90
5578;DHT22;2811;51.900;10.734;2023-12-20T11:01:13;8.20;99.90
5578;DHT22;2811;51.900;10.734;2023-12-20T11:03:44;8.20;99.90
5578;DHT22;2811;51.900;10.734;2023-12-20T11:06:26;8.30;99.90
5578;DHT22;2811;51.900;10.734;2023-12-20T11:08:58;8.20;99.90
5578;DHT22;2811;51.900;10.734;2023-12-20T11:11:37;8.20;99.90
5578;DHT22;2811;51.900;10.734;2023-12-20T11:14:14;8.30;99.90
5578;DHT22;2811;51.900;10.734;2023-12-20T11:16:41;8.40;99.90
5578;DHT22;2811;51.900;10.734;2023-12-20T11:19:08;8.60;99.90
5578;DHT22;2811;51.900;10.734;2023-12-20T11:21:34;8.80;99.90
5578;DHT22;2811;51.900;10.734;2023-12-20T11:24:02;8.90;99.90
5578;DHT22;2811;51.900;10.734;2023-12-20T11:26:29;8.90;99.90
5578;DHT22;2811;51.900;10.734;2023-12-20T11:29:31;8.90;99.90
5578;DHT22;2811;51.900;10.734;2023-12-20T11:32:00;9.00;99.90
5578;DHT22;2811;51.900;10.734;2023-12-20T11:34:28;8.90;99.90
5578;DHT22;2811;51.900;10.734;2023-12-20T11:36:59;8.90;99.90
5578;DHT22;2811;51.900;10.734;2023-12-20T11:39:26;9.00;99.90
5578;DHT22;2811;51.900;10.734;2023-12-20T11:41:55;8.90;99.90
5578;DHT22;2811;51.900;10.734;2023-12-20T11:44:23;9.00;99.90
5578;DHT22;2811;51.900;10.734;2023-12-20T11:46:52;9.00;99.90
5578;DHT22;2811;51.900;10.734;2023-12-20T11:49:23;8.90;99.90
5578;DHT22;2811;51.900;10.734;2023-12-20T11:51:50;8.80;99.90
5578;DHT22;2811;51.900;10.734;2023-12-20T11:54:17;8.90;99.90
5578;DHT22;2811;51.900;10.734;2023-12-20T11:56:45;8.80;99.90
5578;DHT22;2811;51.900;10.734;2023-12-20T11:59:11;8.70;99.90
5578;DHT22;2811;51.900;10.734;2023-12-20T12:01:38;8.70;99.90
5578;DHT22;2811;51.900;10.734;2023-12-20T12:04:06;8.70;99.90
5578;DHT22;2811;51.900;10.734;2023-12-20T12:06:34;8.60;99.90
5578;DHT22;2811;51.900;10.734;2023-12-20T12:09:01;8.70;99.90
5578;DHT22;2811;51.900;10.734;2023-12-20T12:11:29;8.70;99.90
5578;DHT22;2811;51.900;10.734;2023-12-20T12:13:56;8.60;99.90
5578;DHT22;2811;51.900;10.734;2023-12-20T12:16:23;8.50;99.90
5578;DHT22;2811;51.900;10.734;2023-12-20T12:18:55;8.30;99.90
5578;DHT22;2811;51.900;10.734;2023-12-20T12:21:24;8.40;99.90
5578;DHT22;2811;51.900;10.734;2023-12-20T12:23:51;8.40;99.90
5578;DHT22;2811;51.900;10.734;2023-12-20T12:26:18;8.40;99.90
5578;DHT22;2811;51.900;10.734;2023-12-20T12:28:45;8.50;99.90
5578;DHT22;2811;51.900;10.734;2023-12-20T12:31:13;8.50;99.90
5578;DHT22;2811;51.900;10.734;2023-12-20T12:33:41;8.50;99.90
5578;DHT22;2811;51.900;10.734;2023-12-20T12:36:09;8.40;99.90
5578;DHT22;2811;51.900;10.734;2023-12-20T12:38:38;8.30;99.90
5578;DHT22;2811;51.900;10.734;2023-12-20T12:41:04;8.30;99.90
5578;DHT22;2811;51.900;10.734;2023-12-20T12:43:32;8.30;99.90
5578;DHT22;2811;51.900;10.734;2023-12-20T12:45:59;8.20;99.90
5578;DHT22;2811;51.900;10.734;2023-12-20T12:48:26;8.10;99.90
5578;DHT22;2811;51.900;10.734;2023-12-20T12:50:53;8.00;99.90
5578;DHT22;2811;51.900;10.734;2023-12-20T12:53:24;8.00;99.90
5578;DHT22;2811;51.900;10.734;2023-12-20T12:55:52;8.00;99.90
5578;DHT22;2811;51.900;10.734;2023-12-20T12:58:20;8.00;99.90
5578;DHT22;2811;51.900;10.734;2023-12-20T13:00:47;8.10;99.90
5578;DHT22;2811;51.900;10.734;2023-12-20T13:03:14;8.10;99.90
5578;DHT22;2811;51.900;10.734;2023-12-20T13:05:42;8.20;99.90
5578;DHT22;2811;51.900;10.734;2023-12-20T13:08:09;8.20;99.90
5578;DHT22;2811;51.900;10.734;2023-12-20T13:10:37;8.10;99.90
5578;DHT22;2811;51.900;10.734;2023-12-20T13:13:07;8.10;99.90
5578;DHT22;2811;51.900;10.734;2023-12-20T13:15:33;8.10;99.90
5578;DHT22;2811;51.900;10.734;2023-12-20T13:18:00;8.10;99.90
5578;DHT22;2811;51.900;10.734;2023-12-20T13:20:28;8.20;99.90
5578;DHT22;2811;51.900;10.734;2023-12-20T13:22:54;8.10;99.90
5578;DHT22;2811;51.900;10.734;2023-12-20T13:25:21;8.20;99.90
5578;DHT22;2811;51.900;10.734;2023-12-20T13:27:49;8.10;99.90
5578;DHT22;2811;51.900;10.734;2023-12-20T13:30:17;8.10;99.90
5578;DHT22;2811;51.900;10.734;2023-12-20T13:32:44;8.10;99.90
5578;DHT22;2811;51.900;10.734;2023-12-20T13:35:11;8.20;99.90
5578;DHT22;2811;51.900;10.734;2023-12-20T13:37:38;7.70;99.90
5578;DHT22;2811;51.900;10.734;2023-12-20T13:40:06;6.50;99.90
5578;DHT22;2811;51.900;10.734;2023-12-20T13:42:33;5.80;99.90
5578;DHT22;2811;51.900;10.734;2023-12-20T13:45:00;5.60;99.90
5578;DHT22;2811;51.900;10.734;2023-12-20T13:47:28;5.40;99.90
5578;DHT22;2811;51.900;10.734;2023-12-20T13:49:54;5.50;99.90
5578;DHT22;2811;51.900;10.734;2023-12-20T13:52:21;5.60;99.90
5578;DHT22;2811;51.900;10.734;2023-12-20T13:54:48;5.60;99.90
5578;DHT22;2811;51.900;10.734;2023-12-20T13:57:15;5.70;99.90
5578;DHT22;2811;51.900;10.734;2023-12-20T13:59:41;5.70;99.90
5578;DHT22;2811;51.900;10.734;2023-12-20T14:02:08;5.80;99.90
5578;DHT22;2811;51.900;10.734;2023-12-20T14:04:36;5.70;99.90
5578;DHT22;2811;51.900;10.734;2023-12-20T14:07:04;5.70;99.90
5578;DHT22;2811;51.900;10.734;2023-12-20T14:09:33;5.80;99.90
5578;DHT22;2811;51.900;10.734;2023-12-20T14:11:59;5.80;99.90
5578;DHT22;2811;51.900;10.734;2023-12-20T14:14:26;5.90;99.90
5578;DHT22;2811;51.900;10.734;2023-12-20T14:16:53;5.90;99.90
5578;DHT22;2811;51.900;10.734;2023-12-20T14:19:19;5.90;99.90
5578;DHT22;2811;51.900;10.734;2023-12-20T14:21:48;5.90;99.90
5578;DHT22;2811;51.900;10.734;2023-12-20T14:24:14;5.90;99.90
5578;DHT22;2811;51.900;10.734;2023-12-20T14:26:41;5.90;99.90
5578;DHT22;2811;51.900;10.734;2023-12-20T14:29:08;5.90;99.90
5578;DHT22;2811;51.900;10.734;2023-12-20T14:31:35;5.90;99.90
5578;DHT22;2811;51.900;10.734;2023-12-20T14:34:02;6.00;99.90
5578;DHT22;2811;51.900;10.734;2023-12-20T14:36:30;5.90;99.90
5578;DHT22;2811;51.900;10.734;2023-12-20T14:39:04;6.00;99.90
5578;DHT22;2811;51.900;10.734;2023-12-20T14:41:31;6.00;99.90
5578;DHT22;2811;51.900;10.734;2023-12-20T14:43:58;6.00;99.90
5578;DHT22;2811;51.900;10.734;2023-12-20T14:46:25;6.00;99.90
5578;DHT22;2811;51.900;10.734;2023-12-20T14:48:52;6.10;99.90
5578;DHT22;2811;51.900;10.734;2023-12-20T14:51:19;6.20;99.90
5578;DHT22;2811;51.900;10.734;2023-12-20T14:53:46;6.10;99.90
5578;DHT22;2811;51.900;10.734;2023-12-20T14:56:14;6.20;99.90
5578;DHT22;2811;51.900;10.734;2023-12-20T14:58:41;6.20;99.90
5578;DHT22;2811;51.900;10.734;2023-12-20T15:01:08;6.30;99.90
5578;DHT22;2811;51.900;10.734;2023-12-20T15:03:35;6.20;99.90
5578;DHT22;2811;51.900;10.734;2023-12-20T15:06:02;6.20;99.90
5578;DHT22;2811;51.900;10.734;2023-12-20T15:08:28;6.30;99.90
5578;DHT22;2811;51.900;10.734;2023-12-20T15:10:56;6.40;99.90
5578;DHT22;2811;51.900;10.734;2023-12-20T15:13:24;6.40;99.90
5578;DHT22;2811;51.900;10.734;2023-12-20T15:15:50;6.50;99.90
5578;DHT22;2811;51.900;10.734;2023-12-20T15:18:17;6.50;99.90
5578;DHT22;2811;51.900;10.734;2023-12-20T15:20:44;6.50;99.90
5578;DHT22;2811;51.900;10.734;2023-12-20T15:23:11;6.50;99.90
5578;DHT22;2811;51.900;10.734;2023-12-20T15:25:38;6.60;99.90
5578;DHT22;2811;51.900;10.734;2023-12-20T15:28:04;6.60;99.90
5578;DHT22;2811;51.900;10.734;2023-12-20T15:30:33;6.60;99.90
5578;DHT22;2811;51.900;10.734;2023-12-20T15:33:01;6.70;99.90
5578;DHT22;2811;51.900;10.734;2023-12-20T15:35:28;6.60;99.90
5578;DHT22;2811;51.900;10.734;2023-12-20T15:37:56;6.70;99.90
5578;DHT22;2811;51.900;10.734;2023-12-20T15:40:24;6.60;99.90
5578;DHT22;2811;51.900;10.734;2023-12-20T15:42:50;6.60;99.90
5578;DHT22;2811;51.900;10.734;2023-12-20T15:45:17;6.60;99.90
5578;DHT22;2811;51.900;10.734;2023-12-20T15:47:45;6.60;99.90
5578;DHT22;2811;51.900;10.734;2023-12-20T15:50:12;6.60;99.90
5578;DHT22;2811;51.900;10.734;2023-12-20T15:52:39;6.60;99.90
5578;DHT22;2811;51.900;10.734;2023-12-20T15:55:07;6.50;99.90
5578;DHT22;2811;51.900;10.734;2023-12-20T15:57:34;6.50;99.90
5578;DHT22;2811;51.900;10.734;2023-12-20T16:00:01;6.50;99.90
5578;DHT22;2811;51.900;10.734;2023-12-20T16:02:28;6.40;99.90